Shadow, Virginia
Current Conditions -  °F | °C
As of 5:54 PM on Monday 24 Nov 2014 (Local Time) from KPHF Reporting Station
Scattered Clouds Scattered Clouds  
Wind Chill: 73°   Ceiling: Unl
Heat Index: 73°   Visibility: 10mi
Dew Point: 63°   Wind: 14mph
Humidity: 71%   Direction: 200°SSW
Pressure: 29.76"   Gusts: 22mph
Location:  37.3533°N, 76.3099°W
Report Text: KPHF 242254Z 20012G19KT 10SM SCT110 23/17 A2976 RMK AO2 SLP078 T02280172
Loading
Personal Weather Stations






























Interactive Weather Map New forecast layout! Learn more

10-Day Weather Forecast

Advertisements
Track Severe Weather on mobile